sensor_id;sensor_type;location;lat;lon;timestamp;P1;durP1;ratioP1;P2;durP2;ratioP2
18893;SDS011;9579;49.488;8.226;2024-03-02T00:00:27;11.10;;;10.20;;
18893;SDS011;9579;49.488;8.226;2024-03-02T00:03:14;13.37;;;12.17;;
18893;SDS011;9579;49.488;8.226;2024-03-02T00:06:01;11.40;;;10.30;;
18893;SDS011;9579;49.488;8.226;2024-03-02T00:08:48;12.00;;;11.00;;
18893;SDS011;9579;49.488;8.226;2024-03-02T00:11:35;11.53;;;10.43;;
18893;SDS011;9579;49.488;8.226;2024-03-02T00:14:24;10.73;;;9.83;;
18893;SDS011;9579;49.488;8.226;2024-03-02T00:17:24;11.90;;;10.90;;
18893;SDS011;9579;49.488;8.226;2024-03-02T00:20:21;12.23;;;11.13;;
18893;SDS011;9579;49.488;8.226;2024-03-02T00:23:09;11.60;;;10.60;;
18893;SDS011;9579;49.488;8.226;2024-03-02T00:26:00;12.80;;;11.70;;
18893;SDS011;9579;49.488;8.226;2024-03-02T00:28:47;11.60;;;10.60;;
18893;SDS011;9579;49.488;8.226;2024-03-02T00:31:37;11.83;;;10.73;;
18893;SDS011;9579;49.488;8.226;2024-03-02T00:34:26;12.03;;;11.03;;
18893;SDS011;9579;49.488;8.226;2024-03-02T00:37:13;11.40;;;10.47;;
18893;SDS011;9579;49.488;8.226;2024-03-02T00:40:00;13.03;;;11.93;;
18893;SDS011;9579;49.488;8.226;2024-03-02T00:42:49;12.57;;;11.47;;
18893;SDS011;9579;49.488;8.226;2024-03-02T00:45:39;13.20;;;12.10;;
18893;SDS011;9579;49.488;8.226;2024-03-02T00:48:27;11.43;;;10.43;;
18893;SDS011;9579;49.488;8.226;2024-03-02T00:51:16;11.93;;;10.93;;
18893;SDS011;9579;49.488;8.226;2024-03-02T00:54:04;12.30;;;11.10;;
18893;SDS011;9579;49.488;8.226;2024-03-02T00:56:51;11.17;;;10.17;;
18893;SDS011;9579;49.488;8.226;2024-03-02T00:59:40;12.50;;;11.40;;
18893;SDS011;9579;49.488;8.226;2024-03-02T01:02:27;11.37;;;10.37;;
18893;SDS011;9579;49.488;8.226;2024-03-02T01:05:16;11.10;;;10.20;;
18893;SDS011;9579;49.488;8.226;2024-03-02T01:08:04;10.80;;;9.80;;
18893;SDS011;9579;49.488;8.226;2024-03-02T01:10:51;11.90;;;10.80;;
18893;SDS011;9579;49.488;8.226;2024-03-02T01:13:40;11.53;;;10.53;;
18893;SDS011;9579;49.488;8.226;2024-03-02T01:16:26;11.80;;;10.80;;
18893;SDS011;9579;49.488;8.226;2024-03-02T01:19:13;11.03;;;10.03;;
18893;SDS011;9579;49.488;8.226;2024-03-02T01:22:02;12.40;;;11.30;;
18893;SDS011;9579;49.488;8.226;2024-03-02T01:24:49;11.13;;;10.23;;
18893;SDS011;9579;49.488;8.226;2024-03-02T01:27:36;11.33;;;10.33;;
18893;SDS011;9579;49.488;8.226;2024-03-02T01:30:23;10.60;;;9.70;;
18893;SDS011;9579;49.488;8.226;2024-03-02T01:33:10;11.47;;;10.47;;
18893;SDS011;9579;49.488;8.226;2024-03-02T01:35:57;11.60;;;10.60;;
18893;SDS011;9579;49.488;8.226;2024-03-02T01:38:45;11.77;;;10.77;;
18893;SDS011;9579;49.488;8.226;2024-03-02T01:41:32;12.87;;;11.77;;
18893;SDS011;9579;49.488;8.226;2024-03-02T01:44:19;13.37;;;12.17;;
18893;SDS011;9579;49.488;8.226;2024-03-02T01:47:07;12.07;;;11.07;;
18893;SDS011;9579;49.488;8.226;2024-03-02T01:49:54;12.20;;;11.20;;
18893;SDS011;9579;49.488;8.226;2024-03-02T01:52:41;13.07;;;11.87;;
18893;SDS011;9579;49.488;8.226;2024-03-02T01:55:30;12.97;;;11.77;;
18893;SDS011;9579;49.488;8.226;2024-03-02T01:58:20;13.03;;;11.93;;
18893;SDS011;9579;49.488;8.226;2024-03-02T02:01:07;13.63;;;12.53;;
18893;SDS011;9579;49.488;8.226;2024-03-02T02:03:55;12.57;;;11.53;;
18893;SDS011;9579;49.488;8.226;2024-03-02T02:06:42;12.30;;;11.23;;
18893;SDS011;9579;49.488;8.226;2024-03-02T02:09:30;12.80;;;11.57;;
18893;SDS011;9579;49.488;8.226;2024-03-02T02:12:19;10.97;;;10.03;;
18893;SDS011;9579;49.488;8.226;2024-03-02T02:15:21;10.70;;;9.77;;
18893;SDS011;9579;49.488;8.226;2024-03-02T02:18:11;10.83;;;9.93;;
18893;SDS011;9579;49.488;8.226;2024-03-02T02:20:58;9.80;;;9.00;;
18893;SDS011;9579;49.488;8.226;2024-03-02T02:23:46;9.50;;;8.70;;
18893;SDS011;9579;49.488;8.226;2024-03-02T02:26:33;10.73;;;9.83;;
18893;SDS011;9579;49.488;8.226;2024-03-02T02:29:20;10.23;;;9.33;;
18893;SDS011;9579;49.488;8.226;2024-03-02T02:32:07;9.97;;;9.07;;
18893;SDS011;9579;49.488;8.226;2024-03-02T02:34:54;10.00;;;9.17;;
18893;SDS011;9579;49.488;8.226;2024-03-02T02:37:41;11.60;;;10.60;;
18893;SDS011;9579;49.488;8.226;2024-03-02T02:40:30;10.40;;;9.43;;
18893;SDS011;9579;49.488;8.226;2024-03-02T02:43:18;9.60;;;8.80;;
18893;SDS011;9579;49.488;8.226;2024-03-02T02:46:05;10.57;;;9.67;;
18893;SDS011;9579;49.488;8.226;2024-03-02T02:48:52;10.93;;;10.00;;
18893;SDS011;9579;49.488;8.226;2024-03-02T02:51:39;11.53;;;10.53;;
18893;SDS011;9579;49.488;8.226;2024-03-02T02:54:26;9.57;;;8.77;;
18893;SDS011;9579;49.488;8.226;2024-03-02T02:57:14;10.87;;;9.97;;
18893;SDS011;9579;49.488;8.226;2024-03-02T03:00:02;11.30;;;10.40;;
18893;SDS011;9579;49.488;8.226;2024-03-02T03:02:55;11.10;;;10.20;;
18893;SDS011;9579;49.488;8.226;2024-03-02T03:05:42;10.27;;;9.37;;
18893;SDS011;9579;49.488;8.226;2024-03-02T03:08:29;9.17;;;8.43;;
18893;SDS011;9579;49.488;8.226;2024-03-02T03:11:16;10.40;;;9.50;;
18893;SDS011;9579;49.488;8.226;2024-03-02T03:14:04;10.00;;;9.10;;
18893;SDS011;9579;49.488;8.226;2024-03-02T03:16:51;9.90;;;9.00;;
18893;SDS011;9579;49.488;8.226;2024-03-02T03:19:38;9.53;;;8.77;;
18893;SDS011;9579;49.488;8.226;2024-03-02T03:22:25;10.30;;;9.50;;
18893;SDS011;9579;49.488;8.226;2024-03-02T03:25:13;10.20;;;9.30;;
18893;SDS011;9579;49.488;8.226;2024-03-02T03:28:00;11.23;;;10.33;;
18893;SDS011;9579;49.488;8.226;2024-03-02T03:30:49;11.20;;;10.27;;
18893;SDS011;9579;49.488;8.226;2024-03-02T03:33:36;11.60;;;10.57;;
18893;SDS011;9579;49.488;8.226;2024-03-02T03:36:23;11.27;;;10.27;;
18893;SDS011;9579;49.488;8.226;2024-03-02T03:39:10;11.17;;;10.20;;
18893;SDS011;9579;49.488;8.226;2024-03-02T03:41:57;12.30;;;11.30;;
18893;SDS011;9579;49.488;8.226;2024-03-02T03:44:44;10.90;;;10.00;;
18893;SDS011;9579;49.488;8.226;2024-03-02T03:47:33;12.87;;;11.77;;
18893;SDS011;9579;49.488;8.226;2024-03-02T03:50:20;11.00;;;10.10;;
18893;SDS011;9579;49.488;8.226;2024-03-02T03:53:07;12.17;;;11.07;;
18893;SDS011;9579;49.488;8.226;2024-03-02T03:55:54;12.37;;;11.37;;
18893;SDS011;9579;49.488;8.226;2024-03-02T03:58:41;11.57;;;10.57;;
18893;SDS011;9579;49.488;8.226;2024-03-02T04:01:28;11.67;;;10.67;;
18893;SDS011;9579;49.488;8.226;2024-03-02T04:04:16;12.73;;;11.63;;
18893;SDS011;9579;49.488;8.226;2024-03-02T04:07:03;12.20;;;11.20;;
18893;SDS011;9579;49.488;8.226;2024-03-02T04:09:50;11.93;;;10.93;;
18893;SDS011;9579;49.488;8.226;2024-03-02T04:12:37;13.77;;;12.53;;
18893;SDS011;9579;49.488;8.226;2024-03-02T04:15:25;12.13;;;11.10;;
18893;SDS011;9579;49.488;8.226;2024-03-02T04:18:12;12.40;;;11.30;;
18893;SDS011;9579;49.488;8.226;2024-03-02T04:21:00;11.67;;;10.67;;
18893;SDS011;9579;49.488;8.226;2024-03-02T04:23:47;12.53;;;11.43;;
18893;SDS011;9579;49.488;8.226;2024-03-02T04:26:34;13.10;;;12.00;;
18893;SDS011;9579;49.488;8.226;2024-03-02T04:29:21;12.77;;;11.67;;
18893;SDS011;9579;49.488;8.226;2024-03-02T04:32:08;12.17;;;11.10;;
18893;SDS011;9579;49.488;8.226;2024-03-02T04:34:55;14.53;;;13.33;;
18893;SDS011;9579;49.488;8.226;2024-03-02T04:37:43;12.07;;;11.07;;
18893;SDS011;9579;49.488;8.226;2024-03-02T04:40:30;14.40;;;13.10;;
18893;SDS011;9579;49.488;8.226;2024-03-02T04:43:17;11.87;;;10.77;;
18893;SDS011;9579;49.488;8.226;2024-03-02T04:46:04;11.40;;;10.40;;
18893;SDS011;9579;49.488;8.226;2024-03-02T04:48:52;10.67;;;9.77;;
18893;SDS011;9579;49.488;8.226;2024-03-02T04:51:42;10.93;;;10.03;;
18893;SDS011;9579;49.488;8.226;2024-03-02T04:54:30;12.17;;;11.17;;
18893;SDS011;9579;49.488;8.226;2024-03-02T04:57:17;11.27;;;10.27;;
18893;SDS011;9579;49.488;8.226;2024-03-02T05:00:08;11.50;;;10.50;;
18893;SDS011;9579;49.488;8.226;2024-03-02T05:02:59;11.87;;;10.77;;
18893;SDS011;9579;49.488;8.226;2024-03-02T05:08:23;10.80;;;9.90;;
18893;SDS011;9579;49.488;8.226;2024-03-02T05:11:31;11.70;;;10.70;;
18893;SDS011;9579;49.488;8.226;2024-03-02T05:26:26;10.80;;;9.90;;
18893;SDS011;9579;49.488;8.226;2024-03-02T05:32:29;11.40;;;10.30;;
18893;SDS011;9579;49.488;8.226;2024-03-02T05:35:24;10.60;;;9.70;;
18893;SDS011;9579;49.488;8.226;2024-03-02T05:38:12;10.40;;;9.50;;
18893;SDS011;9579;49.488;8.226;2024-03-02T05:41:01;11.40;;;10.40;;
18893;SDS011;9579;49.488;8.226;2024-03-02T05:43:52;9.80;;;9.00;;
18893;SDS011;9579;49.488;8.226;2024-03-02T05:46:40;10.50;;;9.60;;
18893;SDS011;9579;49.488;8.226;2024-03-02T05:49:28;10.93;;;10.03;;
18893;SDS011;9579;49.488;8.226;2024-03-02T05:52:16;9.90;;;9.00;;
18893;SDS011;9579;49.488;8.226;2024-03-02T05:55:11;10.70;;;9.80;;
18893;SDS011;9579;49.488;8.226;2024-03-02T06:09:36;10.27;;;9.30;;
18893;SDS011;9579;49.488;8.226;2024-03-02T06:15:17;10.40;;;9.50;;
18893;SDS011;9579;49.488;8.226;2024-03-02T06:20:39;9.50;;;8.70;;
18893;SDS011;9579;49.488;8.226;2024-03-02T06:23:27;10.23;;;9.40;;
18893;SDS011;9579;49.488;8.226;2024-03-02T06:26:21;10.30;;;9.30;;
18893;SDS011;9579;49.488;8.226;2024-03-02T06:29:14;9.20;;;8.40;;
18893;SDS011;9579;49.488;8.226;2024-03-02T06:32:02;9.77;;;8.93;;
18893;SDS011;9579;49.488;8.226;2024-03-02T06:37:27;9.13;;;8.33;;
18893;SDS011;9579;49.488;8.226;2024-03-02T06:48:04;10.43;;;9.47;;
18893;SDS011;9579;49.488;8.226;2024-03-02T06:50:52;9.27;;;8.47;;
18893;SDS011;9579;49.488;8.226;2024-03-02T06:53:44;9.80;;;9.00;;
18893;SDS011;9579;49.488;8.226;2024-03-02T06:56:32;10.37;;;9.43;;
18893;SDS011;9579;49.488;8.226;2024-03-02T06:59:06;10.63;;;9.73;;
18893;SDS011;9579;49.488;8.226;2024-03-02T07:02:12;10.70;;;9.70;;
18893;SDS011;9579;49.488;8.226;2024-03-02T07:05:02;10.13;;;9.23;;
18893;SDS011;9579;49.488;8.226;2024-03-02T07:07:53;10.63;;;9.63;;
18893;SDS011;9579;49.488;8.226;2024-03-02T07:10:41;10.83;;;9.93;;
18893;SDS011;9579;49.488;8.226;2024-03-02T07:13:29;10.23;;;9.33;;
18893;SDS011;9579;49.488;8.226;2024-03-02T07:16:34;9.20;;;8.40;;
18893;SDS011;9579;49.488;8.226;2024-03-02T07:19:34;9.93;;;9.10;;
18893;SDS011;9579;49.488;8.226;2024-03-02T07:22:29;10.40;;;9.43;;
18893;SDS011;9579;49.488;8.226;2024-03-02T07:25:18;9.37;;;8.57;;
18893;SDS011;9579;49.488;8.226;2024-03-02T07:28:12;9.23;;;8.43;;
18893;SDS011;9579;49.488;8.226;2024-03-02T07:30:57;9.33;;;8.57;;
18893;SDS011;9579;49.488;8.226;2024-03-02T07:34:11;9.70;;;8.90;;
18893;SDS011;9579;49.488;8.226;2024-03-02T07:40:01;9.50;;;8.70;;
18893;SDS011;9579;49.488;8.226;2024-03-02T07:53:11;9.30;;;8.50;;
18893;SDS011;9579;49.488;8.226;2024-03-02T07:56:00;10.47;;;9.50;;
18893;SDS011;9579;49.488;8.226;2024-03-02T07:58:58;11.40;;;10.30;;
18893;SDS011;9579;49.488;8.226;2024-03-02T08:01:49;10.43;;;9.53;;
18893;SDS011;9579;49.488;8.226;2024-03-02T08:04:43;10.40;;;9.50;;
18893;SDS011;9579;49.488;8.226;2024-03-02T08:07:33;9.23;;;8.53;;
18893;SDS011;9579;49.488;8.226;2024-03-02T08:10:22;9.80;;;9.00;;
18893;SDS011;9579;49.488;8.226;2024-03-02T08:13:09;9.93;;;9.07;;
18893;SDS011;9579;49.488;8.226;2024-03-02T08:15:57;9.23;;;8.43;;
18893;SDS011;9579;49.488;8.226;2024-03-02T08:18:47;9.47;;;8.57;;
18893;SDS011;9579;49.488;8.226;2024-03-02T08:21:34;9.63;;;8.83;;
18893;SDS011;9579;49.488;8.226;2024-03-02T08:24:21;10.20;;;9.23;;
18893;SDS011;9579;49.488;8.226;2024-03-02T08:27:10;9.20;;;8.40;;
18893;SDS011;9579;49.488;8.226;2024-03-02T08:29:57;10.23;;;9.33;;
18893;SDS011;9579;49.488;8.226;2024-03-02T08:32:45;9.73;;;8.93;;
18893;SDS011;9579;49.488;8.226;2024-03-02T08:35:32;9.47;;;8.67;;
18893;SDS011;9579;49.488;8.226;2024-03-02T08:38:21;10.23;;;9.33;;
18893;SDS011;9579;49.488;8.226;2024-03-02T08:41:10;9.57;;;8.83;;
18893;SDS011;9579;49.488;8.226;2024-03-02T08:44:10;9.03;;;8.23;;
18893;SDS011;9579;49.488;8.226;2024-03-02T08:47:05;8.20;;;7.50;;
18893;SDS011;9579;49.488;8.226;2024-03-02T08:50:07;9.57;;;8.77;;
18893;SDS011;9579;49.488;8.226;2024-03-02T08:55:34;14.10;;;9.73;;
18893;SDS011;9579;49.488;8.226;2024-03-02T09:01:16;10.47;;;9.57;;
18893;SDS011;9579;49.488;8.226;2024-03-02T09:09:26;10.87;;;9.97;;
18893;SDS011;9579;49.488;8.226;2024-03-02T09:24:58;10.83;;;9.83;;
18893;SDS011;9579;49.488;8.226;2024-03-02T09:30:21;10.47;;;9.57;;
18893;SDS011;9579;49.488;8.226;2024-03-02T09:33:16;10.30;;;9.40;;
18893;SDS011;9579;49.488;8.226;2024-03-02T09:36:18;9.73;;;8.93;;
18893;SDS011;9579;49.488;8.226;2024-03-02T09:39:38;9.52;;;8.73;;
18893;SDS011;9579;49.488;8.226;2024-03-02T09:42:55;9.57;;;8.68;;
18893;SDS011;9579;49.488;8.226;2024-03-02T09:45:57;9.50;;;8.75;;
18893;SDS011;9579;49.488;8.226;2024-03-02T09:49:00;9.13;;;8.32;;
18893;SDS011;9579;49.488;8.226;2024-03-02T09:51:47;8.85;;;7.95;;
18893;SDS011;9579;49.488;8.226;2024-03-02T09:54:36;8.95;;;8.15;;
18893;SDS011;9579;49.488;8.226;2024-03-02T09:57:24;9.65;;;8.85;;
18893;SDS011;9579;49.488;8.226;2024-03-02T10:00:11;8.65;;;7.85;;
18893;SDS011;9579;49.488;8.226;2024-03-02T10:03:00;8.38;;;7.68;;
18893;SDS011;9579;49.488;8.226;2024-03-02T10:05:47;9.38;;;8.48;;
18893;SDS011;9579;49.488;8.226;2024-03-02T10:08:41;9.18;;;8.38;;
18893;SDS011;9579;49.488;8.226;2024-03-02T10:11:31;8.73;;;8.02;;
18893;SDS011;9579;49.488;8.226;2024-03-02T10:14:22;9.48;;;8.63;;
18893;SDS011;9579;49.488;8.226;2024-03-02T10:17:09;8.30;;;7.60;;
18893;SDS011;9579;49.488;8.226;2024-03-02T10:19:57;8.60;;;7.80;;
18893;SDS011;9579;49.488;8.226;2024-03-02T10:22:44;8.40;;;7.70;;
18893;SDS011;9579;49.488;8.226;2024-03-02T10:25:32;8.13;;;7.43;;
18893;SDS011;9579;49.488;8.226;2024-03-02T10:28:21;8.48;;;7.78;;
18893;SDS011;9579;49.488;8.226;2024-03-02T10:31:08;8.40;;;7.70;;
18893;SDS011;9579;49.488;8.226;2024-03-02T10:33:55;6.63;;;6.13;;
18893;SDS011;9579;49.488;8.226;2024-03-02T10:36:49;7.30;;;6.70;;
18893;SDS011;9579;49.488;8.226;2024-03-02T10:39:37;7.60;;;7.00;;
18893;SDS011;9579;49.488;8.226;2024-03-02T10:42:35;8.35;;;7.65;;
18893;SDS011;9579;49.488;8.226;2024-03-02T10:49:35;7.40;;;6.78;;
18893;SDS011;9579;49.488;8.226;2024-03-02T10:52:31;7.65;;;6.95;;
18893;SDS011;9579;49.488;8.226;2024-03-02T10:55:24;7.18;;;6.57;;
18893;SDS011;9579;49.488;8.226;2024-03-02T10:58:11;7.25;;;6.53;;
18893;SDS011;9579;49.488;8.226;2024-03-02T11:01:00;7.60;;;7.00;;
18893;SDS011;9579;49.488;8.226;2024-03-02T11:03:50;7.10;;;6.40;;
18893;SDS011;9579;49.488;8.226;2024-03-02T11:06:38;6.53;;;5.93;;
18893;SDS011;9579;49.488;8.226;2024-03-02T11:09:32;7.57;;;6.88;;
18893;SDS011;9579;49.488;8.226;2024-03-02T11:12:23;7.40;;;6.80;;
18893;SDS011;9579;49.488;8.226;2024-03-02T11:15:17;6.88;;;6.28;;
18893;SDS011;9579;49.488;8.226;2024-03-02T11:18:05;8.00;;;7.20;;
18893;SDS011;9579;49.488;8.226;2024-03-02T11:20:55;6.43;;;5.88;;
18893;SDS011;9579;49.488;8.226;2024-03-02T11:23:43;7.55;;;6.85;;
18893;SDS011;9579;49.488;8.226;2024-03-02T11:26:30;9.38;;;8.35;;
18893;SDS011;9579;49.488;8.226;2024-03-02T11:29:44;5.78;;;5.28;;
18893;SDS011;9579;49.488;8.226;2024-03-02T11:32:31;5.03;;;4.63;;
18893;SDS011;9579;49.488;8.226;2024-03-02T11:35:18;5.82;;;5.03;;
18893;SDS011;9579;49.488;8.226;2024-03-02T11:38:07;5.18;;;4.68;;
18893;SDS011;9579;49.488;8.226;2024-03-02T11:40:56;5.07;;;4.68;;
18893;SDS011;9579;49.488;8.226;2024-03-02T11:43:43;5.72;;;5.30;;
18893;SDS011;9579;49.488;8.226;2024-03-02T11:46:30;5.40;;;4.90;;
18893;SDS011;9579;49.488;8.226;2024-03-02T11:49:20;5.13;;;4.72;;
18893;SDS011;9579;49.488;8.226;2024-03-02T11:52:22;4.97;;;4.53;;
18893;SDS011;9579;49.488;8.226;2024-03-02T11:55:12;5.40;;;4.95;;
18893;SDS011;9579;49.488;8.226;2024-03-02T11:58:01;4.45;;;4.15;;
18893;SDS011;9579;49.488;8.226;2024-03-02T12:00:50;4.50;;;4.20;;
18893;SDS011;9579;49.488;8.226;2024-03-02T12:03:37;4.10;;;3.70;;
18893;SDS011;9579;49.488;8.226;2024-03-02T12:06:24;4.00;;;3.70;;
18893;SDS011;9579;49.488;8.226;2024-03-02T12:09:11;3.70;;;3.40;;
18893;SDS011;9579;49.488;8.226;2024-03-02T12:12:05;5.95;;;3.80;;
18893;SDS011;9579;49.488;8.226;2024-03-02T12:14:53;3.58;;;3.28;;
18893;SDS011;9579;49.488;8.226;2024-03-02T12:17:40;3.50;;;3.20;;
18893;SDS011;9579;49.488;8.226;2024-03-02T12:20:28;6.20;;;4.40;;
18893;SDS011;9579;49.488;8.226;2024-03-02T12:23:15;3.28;;;2.97;;
18893;SDS011;9579;49.488;8.226;2024-03-02T12:26:03;3.47;;;3.17;;
18893;SDS011;9579;49.488;8.226;2024-03-02T12:28:51;3.15;;;2.95;;
18893;SDS011;9579;49.488;8.226;2024-03-02T12:31:39;3.42;;;3.08;;
18893;SDS011;9579;49.488;8.226;2024-03-02T12:34:26;6.22;;;3.17;;
18893;SDS011;9579;49.488;8.226;2024-03-02T12:37:13;3.35;;;3.05;;
18893;SDS011;9579;49.488;8.226;2024-03-02T12:40:00;4.00;;;3.05;;
18893;SDS011;9579;49.488;8.226;2024-03-02T12:42:48;19.52;;;4.15;;
18893;SDS011;9579;49.488;8.226;2024-03-02T12:45:36;3.22;;;2.40;;
18893;SDS011;9579;49.488;8.226;2024-03-02T12:48:23;6.22;;;2.65;;
18893;SDS011;9579;49.488;8.226;2024-03-02T12:51:11;8.80;;;2.35;;
18893;SDS011;9579;49.488;8.226;2024-03-02T12:53:59;3.80;;;2.35;;
18893;SDS011;9579;49.488;8.226;2024-03-02T12:56:47;2.97;;;2.70;;
18893;SDS011;9579;49.488;8.226;2024-03-02T12:59:34;2.42;;;2.22;;
18893;SDS011;9579;49.488;8.226;2024-03-02T13:02:23;2.40;;;2.20;;
18893;SDS011;9579;49.488;8.226;2024-03-02T13:05:14;2.90;;;2.00;;
18893;SDS011;9579;49.488;8.226;2024-03-02T13:08:01;5.97;;;2.38;;
18893;SDS011;9579;49.488;8.226;2024-03-02T13:10:50;3.53;;;2.40;;
18893;SDS011;9579;49.488;8.226;2024-03-02T13:13:37;68.75;;;8.70;;
18893;SDS011;9579;49.488;8.226;2024-03-02T13:16:25;12.07;;;3.42;;
18893;SDS011;9579;49.488;8.226;2024-03-02T13:19:14;29.15;;;6.53;;
18893;SDS011;9579;49.488;8.226;2024-03-02T13:22:01;9.57;;;3.67;;
18893;SDS011;9579;49.488;8.226;2024-03-02T13:24:48;6.35;;;3.60;;
18893;SDS011;9579;49.488;8.226;2024-03-02T13:27:36;5.80;;;3.10;;
18893;SDS011;9579;49.488;8.226;2024-03-02T13:30:23;4.70;;;3.45;;
18893;SDS011;9579;49.488;8.226;2024-03-02T13:33:10;18.38;;;4.22;;
18893;SDS011;9579;49.488;8.226;2024-03-02T13:35:58;4.47;;;2.72;;
18893;SDS011;9579;49.488;8.226;2024-03-02T13:38:47;4.15;;;2.50;;
18893;SDS011;9579;49.488;8.226;2024-03-02T13:41:33;72.18;;;7.25;;
18893;SDS011;9579;49.488;8.226;2024-03-02T13:44:21;2.65;;;1.70;;
18893;SDS011;9579;49.488;8.226;2024-03-02T13:47:08;1.80;;;1.70;;
18893;SDS011;9579;49.488;8.226;2024-03-02T13:49:55;1.80;;;1.60;;
18893;SDS011;9579;49.488;8.226;2024-03-02T13:52:43;1.50;;;1.40;;
18893;SDS011;9579;49.488;8.226;2024-03-02T13:55:30;1.40;;;1.30;;
18893;SDS011;9579;49.488;8.226;2024-03-02T13:58:17;1.90;;;1.70;;
18893;SDS011;9579;49.488;8.226;2024-03-02T14:01:06;2.20;;;2.10;;
18893;SDS011;9579;49.488;8.226;2024-03-02T14:03:53;2.10;;;2.00;;
18893;SDS011;9579;49.488;8.226;2024-03-02T14:06:42;2.70;;;2.10;;
18893;SDS011;9579;49.488;8.226;2024-03-02T14:09:30;2.10;;;1.98;;
18893;SDS011;9579;49.488;8.226;2024-03-02T14:12:17;2.20;;;2.00;;
18893;SDS011;9579;49.488;8.226;2024-03-02T14:15:05;2.35;;;2.20;;
18893;SDS011;9579;49.488;8.226;2024-03-02T14:17:53;2.25;;;2.15;;
18893;SDS011;9579;49.488;8.226;2024-03-02T14:20:40;1.95;;;1.85;;
18893;SDS011;9579;49.488;8.226;2024-03-02T14:23:28;2.20;;;2.00;;
18893;SDS011;9579;49.488;8.226;2024-03-02T14:26:16;1.95;;;1.85;;
18893;SDS011;9579;49.488;8.226;2024-03-02T14:29:03;6.97;;;2.25;;
18893;SDS011;9579;49.488;8.226;2024-03-02T14:31:50;2.28;;;1.88;;
18893;SDS011;9579;49.488;8.226;2024-03-02T14:34:37;2.67;;;1.85;;
18893;SDS011;9579;49.488;8.226;2024-03-02T14:37:24;1.92;;;1.70;;
18893;SDS011;9579;49.488;8.226;2024-03-02T14:40:11;14.30;;;3.00;;
18893;SDS011;9579;49.488;8.226;2024-03-02T14:43:00;2.60;;;2.40;;
18893;SDS011;9579;49.488;8.226;2024-03-02T14:45:47;2.67;;;2.20;;
18893;SDS011;9579;49.488;8.226;2024-03-02T14:48:34;2.58;;;2.38;;
18893;SDS011;9579;49.488;8.226;2024-03-02T14:51:21;5.13;;;2.50;;
18893;SDS011;9579;49.488;8.226;2024-03-02T14:54:08;3.33;;;2.47;;
18893;SDS011;9579;49.488;8.226;2024-03-02T14:56:55;2.50;;;2.30;;
18893;SDS011;9579;49.488;8.226;2024-03-02T14:59:43;2.22;;;2.13;;
18893;SDS011;9579;49.488;8.226;2024-03-02T15:02:30;2.50;;;2.30;;
18893;SDS011;9579;49.488;8.226;2024-03-02T15:05:17;2.70;;;2.50;;
18893;SDS011;9579;49.488;8.226;2024-03-02T15:08:05;2.92;;;2.60;;
18893;SDS011;9579;49.488;8.226;2024-03-02T15:10:52;2.90;;;2.70;;
18893;SDS011;9579;49.488;8.226;2024-03-02T15:13:42;3.33;;;3.03;;
18893;SDS011;9579;49.488;8.226;2024-03-02T15:16:30;2.85;;;2.65;;
18893;SDS011;9579;49.488;8.226;2024-03-02T15:19:17;3.10;;;2.85;;
18893;SDS011;9579;49.488;8.226;2024-03-02T15:22:04;3.67;;;3.38;;
18893;SDS011;9579;49.488;8.226;2024-03-02T15:24:52;4.38;;;3.13;;
18893;SDS011;9579;49.488;8.226;2024-03-02T15:27:39;3.17;;;2.95;;
18893;SDS011;9579;49.488;8.226;2024-03-02T15:30:27;2.60;;;2.40;;
18893;SDS011;9579;49.488;8.226;2024-03-02T15:33:15;4.00;;;2.95;;
18893;SDS011;9579;49.488;8.226;2024-03-02T15:36:03;2.83;;;2.63;;
18893;SDS011;9579;49.488;8.226;2024-03-02T15:38:51;3.33;;;2.83;;
18893;SDS011;9579;49.488;8.226;2024-03-02T15:41:38;8.18;;;5.10;;
18893;SDS011;9579;49.488;8.226;2024-03-02T15:44:26;5.80;;;4.60;;
18893;SDS011;9579;49.488;8.226;2024-03-02T15:47:13;6.03;;;5.43;;
18893;SDS011;9579;49.488;8.226;2024-03-02T15:50:01;5.90;;;5.25;;
18893;SDS011;9579;49.488;8.226;2024-03-02T15:52:49;5.15;;;4.10;;
18893;SDS011;9579;49.488;8.226;2024-03-02T15:55:37;3.70;;;3.20;;
18893;SDS011;9579;49.488;8.226;2024-03-02T15:58:24;8.57;;;3.38;;
18893;SDS011;9579;49.488;8.226;2024-03-02T16:01:11;5.72;;;3.45;;
18893;SDS011;9579;49.488;8.226;2024-03-02T16:03:58;5.25;;;2.75;;
18893;SDS011;9579;49.488;8.226;2024-03-02T16:06:47;5.78;;;2.63;;
18893;SDS011;9579;49.488;8.226;2024-03-02T16:09:34;61.85;;;8.05;;
18893;SDS011;9579;49.488;8.226;2024-03-02T16:12:21;16.73;;;4.03;;
18893;SDS011;9579;49.488;8.226;2024-03-02T16:15:08;11.35;;;3.60;;
18893;SDS011;9579;49.488;8.226;2024-03-02T16:17:55;6.85;;;2.72;;
18893;SDS011;9579;49.488;8.226;2024-03-02T16:20:44;3.78;;;2.45;;
18893;SDS011;9579;49.488;8.226;2024-03-02T16:23:32;5.00;;;2.53;;
18893;SDS011;9579;49.488;8.226;2024-03-02T16:26:19;2.33;;;2.13;;
18893;SDS011;9579;49.488;8.226;2024-03-02T16:29:06;2.65;;;2.45;;
18893;SDS011;9579;49.488;8.226;2024-03-02T16:31:53;2.67;;;2.47;;
18893;SDS011;9579;49.488;8.226;2024-03-02T16:34:40;2.30;;;2.20;;
18893;SDS011;9579;49.488;8.226;2024-03-02T16:37:27;4.60;;;2.80;;
18893;SDS011;9579;49.488;8.226;2024-03-02T16:40:15;2.65;;;2.45;;
18893;SDS011;9579;49.488;8.226;2024-03-02T16:43:03;2.60;;;2.40;;
18893;SDS011;9579;49.488;8.226;2024-03-02T16:45:50;2.80;;;2.60;;
18893;SDS011;9579;49.488;8.226;2024-03-02T16:48:37;2.90;;;2.65;;
18893;SDS011;9579;49.488;8.226;2024-03-02T16:51:24;3.53;;;2.95;;
18893;SDS011;9579;49.488;8.226;2024-03-02T16:54:11;4.75;;;3.00;;
18893;SDS011;9579;49.488;8.226;2024-03-02T16:57:00;3.53;;;3.22;;
18893;SDS011;9579;49.488;8.226;2024-03-02T16:59:47;3.80;;;3.50;;
18893;SDS011;9579;49.488;8.226;2024-03-02T17:02:34;4.72;;;3.95;;
18893;SDS011;9579;49.488;8.226;2024-03-02T17:05:21;4.00;;;3.60;;
18893;SDS011;9579;49.488;8.226;2024-03-02T17:08:10;4.55;;;3.90;;
18893;SDS011;9579;49.488;8.226;2024-03-02T17:29:28;3.08;;;2.50;;
18893;SDS011;9579;49.488;8.226;2024-03-02T17:32:45;3.42;;;2.60;;
18893;SDS011;9579;49.488;8.226;2024-03-02T17:40:36;5.38;;;3.28;;
18893;SDS011;9579;49.488;8.226;2024-03-02T17:43:22;3.45;;;3.15;;
18893;SDS011;9579;49.488;8.226;2024-03-02T17:49:49;10.32;;;6.30;;
18893;SDS011;9579;49.488;8.226;2024-03-02T17:53:46;6.97;;;5.40;;
18893;SDS011;9579;49.488;8.226;2024-03-02T17:59:06;6.85;;;5.50;;
18893;SDS011;9579;49.488;8.226;2024-03-02T18:07:27;5.43;;;4.93;;
18893;SDS011;9579;49.488;8.226;2024-03-02T18:10:49;4.65;;;4.13;;
18893;SDS011;9579;49.488;8.226;2024-03-02T18:14:52;9.48;;;8.65;;
18893;SDS011;9579;49.488;8.226;2024-03-02T18:17:20;8.40;;;7.47;;
18893;SDS011;9579;49.488;8.226;2024-03-02T18:20:18;7.25;;;6.65;;
18893;SDS011;9579;49.488;8.226;2024-03-02T18:26:40;8.70;;;7.90;;
18893;SDS011;9579;49.488;8.226;2024-03-02T18:29:48;6.72;;;6.00;;
18893;SDS011;9579;49.488;8.226;2024-03-02T18:33:13;7.75;;;7.05;;
18893;SDS011;9579;49.488;8.226;2024-03-02T18:36:37;7.97;;;7.27;;
18893;SDS011;9579;49.488;8.226;2024-03-02T18:39:32;9.73;;;7.50;;
18893;SDS011;9579;49.488;8.226;2024-03-02T18:42:26;7.78;;;7.07;;
18893;SDS011;9579;49.488;8.226;2024-03-02T18:45:15;8.23;;;7.07;;
18893;SDS011;9579;49.488;8.226;2024-03-02T18:48:12;8.20;;;7.32;;
18893;SDS011;9579;49.488;8.226;2024-03-02T18:51:06;8.50;;;7.70;;
18893;SDS011;9579;49.488;8.226;2024-03-02T18:53:56;8.93;;;8.02;;
18893;SDS011;9579;49.488;8.226;2024-03-02T18:56:45;10.10;;;9.20;;
18893;SDS011;9579;49.488;8.226;2024-03-02T18:59:37;18.48;;;16.65;;
18893;SDS011;9579;49.488;8.226;2024-03-02T19:02:25;16.55;;;15.00;;
18893;SDS011;9579;49.488;8.226;2024-03-02T19:05:14;17.60;;;15.80;;
18893;SDS011;9579;49.488;8.226;2024-03-02T19:08:01;17.75;;;15.95;;
18893;SDS011;9579;49.488;8.226;2024-03-02T19:10:52;15.30;;;13.80;;
18893;SDS011;9579;49.488;8.226;2024-03-02T19:13:46;13.52;;;12.05;;
18893;SDS011;9579;49.488;8.226;2024-03-02T19:16:37;12.65;;;11.38;;